Terminal Aerodrome Forecast
Issued by NWS Albany, NY

Home | Current Version | Previous Version | Text Only | Print | Product List | Glossary On
Versions: 1 2 3 4 5 6 7 8 9 10 11 12 13 14 15 16 17 18 19
000
FTUS41 KALY 302300
TAFPOU
TAF
KPOU 302320Z 3100/3124 VRB03KT P6SM SKC
     FM310300 00000KT P6SM BKN060 BKN100
      TEMPO 3106/3110 3SM BR
     FM311200 22005KT P6SM VCSH BKN045
     FM312100 22007KT P6SM SCT040 SCT100=

USA.gov is the U.S. government's official web portal to all federal, state and local government web resources and services.